Time;durP1;ratioP1;P1;durP2;ratioP2;P2;SDS_P1;SDS_P2;PMS_P1;PMS_P2;Temp;Humidity;BMP_temperature;BMP_pressure;BME280_temperature;BME280_humidity;BME280_pressure;Samples;Min_cycle;Max_cycle;Signal;HPM_P1;HPM_P2
2022/05/21 00:00:31;;;;;;;27.60;13.18;;;9.70;99.90;;;;;;5045313;28;20044;-86
2022/05/21 00:02:57;;;;;;;29.60;13.05;;;9.70;99.90;;;;;;5012623;28;20034;-86
2022/05/21 00:05:26;;;;;;;26.70;12.73;;;9.70;99.90;;;;;;5022299;28;20037;-85
2022/05/21 00:07:52;;;;;;;26.85;12.95;;;9.80;99.90;;;;;;5014273;28;20049;-86
2022/05/21 00:10:23;;;;;;;24.08;11.93;;;9.80;99.90;;;;;;5013774;28;20057;-86
2022/05/21 00:12:49;;;;;;;28.70;14.43;;;9.90;99.90;;;;;;5010706;28;20045;-86
2022/05/21 00:15:17;;;;;;;26.70;13.60;;;10.00;99.90;;;;;;5011502;28;20057;-86
2022/05/21 00:17:43;;;;;;;29.95;14.45;;;10.00;99.90;;;;;;5007075;28;20890;-86
2022/05/21 00:20:47;;;;;;;35.47;16.05;;;10.00;99.90;;;;;;5013014;28;20136;-86
2022/05/21 00:22:57;;;;;;;32.45;13.85;;;10.10;99.90;;;;;;5049471;28;20128;-87
2022/05/21 00:25:23;;;;;;;31.33;14.55;;;10.00;99.90;;;;;;5045527;28;20099;-86
2022/05/21 00:27:50;;;;;;;31.63;15.40;;;10.00;99.90;;;;;;5028381;28;20051;-86
2022/05/21 00:30:16;;;;;;;32.92;16.30;;;9.90;99.90;;;;;;5001899;28;20064;-86
2022/05/21 00:32:42;;;;;;;42.90;17.55;;;9.90;99.90;;;;;;5013199;28;20053;-86
2022/05/21 00:35:08;;;;;;;30.90;15.88;;;10.00;99.90;;;;;;5018593;28;20091;-86
2022/05/21 00:37:34;;;;;;;48.63;19.70;;;9.80;99.90;;;;;;5029024;28;20144;-86
2022/05/21 00:40:00;;;;;;;34.83;15.95;;;9.80;99.90;;;;;;5046550;28;20146;-86
2022/05/21 00:42:25;;;;;;;37.55;17.10;;;9.80;99.90;;;;;;5012994;28;20077;-86
2022/05/21 00:44:51;;;;;;;53.65;18.95;;;9.70;99.90;;;;;;5029126;28;20054;-87
2022/05/21 00:47:17;;;;;;;40.78;17.30;;;9.70;99.90;;;;;;5028424;28;20048;-87
2022/05/21 00:49:44;;;;;;;44.13;18.33;;;9.70;99.90;;;;;;5010111;28;20052;-87
2022/05/21 00:52:17;;;;;;;52.53;20.80;;;9.70;99.90;;;;;;5045416;28;20165;-87
2022/05/21 00:54:56;;;;;;;52.63;21.05;;;9.70;99.90;;;;;;5030955;28;20410;-87
2022/05/21 00:57:27;;;;;;;50.58;21.30;;;9.80;99.90;;;;;;5040386;28;20046;-87
2022/05/21 00:59:58;;;;;;;51.88;22.42;;;9.80;99.90;;;;;;5028903;28;20080;-87
2022/05/21 01:02:40;;;;;;;52.17;24.30;;;9.80;99.90;;;;;;5061055;28;20053;-87
2022/05/21 01:05:09;;;;;;;73.18;28.48;;;10.00;99.90;;;;;;5030482;28;20048;-85
2022/05/21 01:07:40;;;;;;;69.97;27.65;;;10.10;99.90;;;;;;5042166;28;20410;-87
2022/05/21 01:10:08;;;;;;;66.72;28.38;;;10.10;99.90;;;;;;5028328;28;20402;-86
2022/05/21 01:12:47;;;;;;;77.18;28.88;;;10.10;99.90;;;;;;5012757;28;20083;-86
2022/05/21 01:15:17;;;;;;;75.15;31.02;;;10.20;99.90;;;;;;5030410;28;20131;-87
2022/05/21 01:17:42;;;;;;;106.20;35.08;;;10.20;99.90;;;;;;5031383;28;20041;-88
2022/05/21 01:20:18;;;;;;;79.15;31.45;;;10.10;99.90;;;;;;5027988;28;20049;-86
2022/05/21 01:22:46;;;;;;;80.22;34.15;;;10.10;99.90;;;;;;5043073;28;20445;-86
2022/05/21 01:25:15;;;;;;;83.47;36.08;;;10.20;99.90;;;;;;5028579;28;20075;-86
2022/05/21 01:27:41;;;;;;;84.18;37.47;;;10.30;99.90;;;;;;5027983;28;20462;-86
2022/05/21 01:30:10;;;;;;;103.30;40.10;;;10.30;99.90;;;;;;4992739;28;20061;-86
2022/05/21 01:32:36;;;;;;;93.53;40.78;;;10.30;99.90;;;;;;5010292;28;20038;-85
2022/05/21 01:35:03;;;;;;;102.13;43.92;;;10.50;99.90;;;;;;5009983;28;20056;-86
2022/05/21 01:37:30;;;;;;;98.38;44.47;;;10.50;99.90;;;;;;5009142;28;20042;-86
2022/05/21 01:39:56;;;;;;;123.50;48.58;;;10.60;99.90;;;;;;4995285;28;20107;-86
2022/05/21 01:42:23;;;;;;;139.85;51.38;;;10.70;99.90;;;;;;5046242;28;20052;-86
2022/05/21 01:44:52;;;;;;;141.27;48.97;;;10.80;99.90;;;;;;5026957;28;20045;-86
2022/05/21 01:47:19;;;;;;;116.07;49.50;;;10.80;99.90;;;;;;5015517;28;20126;-86
2022/05/21 01:49:44;;;;;;;107.40;46.35;;;10.80;99.90;;;;;;5026847;28;20045;-85
2022/05/21 01:52:12;;;;;;;121.78;49.25;;;10.90;99.90;;;;;;5043977;28;20071;-85
2022/05/21 01:54:38;;;;;;;124.13;50.67;;;11.00;99.90;;;;;;5044556;28;20056;-85
2022/05/21 01:57:06;;;;;;;112.68;47.55;;;11.20;99.90;;;;;;5012596;28;20046;-85
2022/05/21 01:59:32;;;;;;;110.25;47.80;;;11.10;99.90;;;;;;5028043;28;20049;-85
2022/05/21 02:01:57;;;;;;;140.35;53.85;;;11.10;99.90;;;;;;5026864;28;20533;-85
2022/05/21 02:04:23;;;;;;;132.90;52.97;;;11.10;99.90;;;;;;5024739;28;20048;-85
2022/05/21 02:06:49;;;;;;;137.80;51.92;;;11.20;99.90;;;;;;5009404;28;20041;-86
2022/05/21 02:09:15;;;;;;;155.55;54.65;;;11.20;99.90;;;;;;5028118;28;20091;-85
2022/05/21 02:11:43;;;;;;;131.63;51.20;;;11.30;99.90;;;;;;5028758;28;20095;-86
2022/05/21 02:14:09;;;;;;;105.22;49.28;;;11.30;99.90;;;;;;5028745;28;20045;-85
2022/05/21 02:16:36;;;;;;;109.70;47.70;;;11.30;99.90;;;;;;5029221;28;20727;-85
2022/05/21 02:19:05;;;;;;;130.48;51.42;;;11.40;99.90;;;;;;5010392;28;20155;-85
2022/05/21 02:21:33;;;;;;;140.50;53.03;;;11.40;99.90;;;;;;5043220;28;20044;-85
2022/05/21 02:23:59;;;;;;;104.22;48.22;;;11.40;99.90;;;;;;5028924;28;20513;-86
2022/05/21 02:26:25;;;;;;;100.07;48.42;;;11.40;99.90;;;;;;5010526;28;20080;-84
2022/05/21 02:28:51;;;;;;;115.30;49.95;;;11.50;99.90;;;;;;5025048;28;20132;-85
2022/05/21 02:31:18;;;;;;;113.63;49.28;;;11.50;99.90;;;;;;5030689;28;20045;-85
2022/05/21 02:33:43;;;;;;;118.65;52.33;;;11.50;99.90;;;;;;5028520;28;20046;-85
2022/05/21 02:36:10;;;;;;;131.13;53.25;;;11.50;99.90;;;;;;5011147;28;20124;-86
2022/05/21 02:41:20;;;;;;;111.72;49.25;;;11.50;99.90;;;;;;5029459;28;20092;-86
2022/05/21 02:43:47;;;;;;;124.40;54.20;;;11.50;99.90;;;;;;4996081;28;20061;-86
2022/05/21 02:46:14;;;;;;;151.68;55.65;;;11.50;99.90;;;;;;4997094;28;20498;-86
2022/05/21 02:48:40;;;;;;;122.05;54.15;;;11.60;99.90;;;;;;5027103;28;20134;-86
2022/05/21 02:51:08;;;;;;;139.88;55.42;;;11.60;99.90;;;;;;5027655;28;20049;-86
2022/05/21 02:53:33;;;;;;;120.70;53.90;;;11.60;99.90;;;;;;5004675;28;20503;-86
2022/05/21 02:56:04;;;;;;;111.18;51.42;;;11.60;99.90;;;;;;5037863;28;20324;-85
2022/05/21 02:58:30;;;;;;;108.40;50.58;;;11.70;99.90;;;;;;5009916;28;20502;-85
2022/05/21 03:00:56;;;;;;;113.15;53.90;;;11.70;99.90;;;;;;5027591;28;20049;-85
2022/05/21 03:03:21;;;;;;;112.80;52.58;;;11.70;99.90;;;;;;5026144;28;20037;-86
2022/05/21 03:05:47;;;;;;;90.85;47.65;;;11.70;99.90;;;;;;5011345;28;20594;-85
2022/05/21 03:10:57;;;;;;;101.60;48.15;;;11.70;99.90;;;;;;5026064;28;20053;-86
2022/05/21 03:13:23;;;;;;;101.47;47.92;;;11.80;99.90;;;;;;5028881;28;20033;-85
2022/05/21 03:15:49;;;;;;;139.40;54.40;;;11.80;99.90;;;;;;5013460;28;20441;-86
2022/05/21 03:18:16;;;;;;;109.55;48.88;;;11.70;99.90;;;;;;5025199;28;20049;-86
2022/05/21 03:20:42;;;;;;;108.38;49.78;;;11.80;99.90;;;;;;5006518;28;20132;-86
2022/05/21 03:23:09;;;;;;;115.63;49.28;;;11.80;99.90;;;;;;5004788;28;20148;-86
2022/05/21 03:25:36;;;;;;;90.68;44.08;;;11.90;99.90;;;;;;5004132;28;20487;-87
2022/05/21 03:28:03;;;;;;;93.05;44.22;;;11.80;99.90;;;;;;4997030;28;20046;-86
2022/05/21 03:30:30;;;;;;;85.13;44.00;;;11.90;99.90;;;;;;5023652;28;20506;-87
2022/05/21 03:32:56;;;;;;;116.03;48.38;;;11.90;99.90;;;;;;5012159;28;20049;-86
2022/05/21 03:35:23;;;;;;;96.50;43.90;;;11.90;99.90;;;;;;5007559;28;20455;-86
2022/05/21 03:37:51;;;;;;;81.57;38.97;;;11.90;99.90;;;;;;5026612;28;20483;-86
2022/05/21 03:40:28;;;;;;;90.93;39.80;;;11.90;99.90;;;;;;5043499;28;20069;-87
2022/05/21 03:42:54;;;;;;;90.70;39.63;;;12.00;99.90;;;;;;5009022;28;20048;-87
2022/05/21 03:45:20;;;;;;;79.30;37.13;;;12.00;99.90;;;;;;4996714;28;20844;-85
2022/05/21 03:47:47;;;;;;;89.00;37.30;;;12.00;99.90;;;;;;5033338;28;20478;-87
2022/05/21 03:50:19;;;;;;;93.55;40.90;;;12.00;99.90;;;;;;5011908;28;20161;-87
2022/05/21 03:52:45;;;;;;;69.95;34.85;;;12.00;99.90;;;;;;5014166;28;20114;-87
2022/05/21 03:55:11;;;;;;;76.38;35.38;;;12.00;99.90;;;;;;5033595;28;20199;-87
2022/05/21 03:57:37;;;;;;;78.57;35.30;;;12.10;99.90;;;;;;5013691;28;20050;-87
2022/05/21 04:00:09;;;;;;;96.03;37.53;;;12.00;99.90;;;;;;5018372;28;20125;-87
2022/05/21 04:02:36;;;;;;;82.13;34.75;;;12.10;99.90;;;;;;5014149;28;20059;-87
2022/05/21 04:05:03;;;;;;;69.18;33.03;;;12.10;99.90;;;;;;5006971;28;20073;-87
2022/05/21 04:07:29;;;;;;;77.78;33.50;;;12.10;99.90;;;;;;4992655;28;20450;-87
2022/05/21 04:09:54;;;;;;;61.95;29.20;;;12.10;99.90;;;;;;5027147;28;20049;-86
2022/05/21 04:12:20;;;;;;;67.78;28.63;;;12.10;99.90;;;;;;5045286;28;20041;-85
2022/05/21 04:14:46;;;;;;;55.78;24.67;;;12.20;99.90;;;;;;5015544;28;20491;-86
2022/05/21 04:17:13;;;;;;;54.30;20.63;;;12.10;99.90;;;;;;5028884;28;20068;-87
2022/05/21 04:19:40;;;;;;;36.53;16.23;;;12.10;99.90;;;;;;5014256;28;20399;-86
2022/05/21 04:22:07;;;;;;;45.50;15.73;;;12.20;99.90;;;;;;5046914;28;20176;-86
2022/05/21 04:24:32;;;;;;;38.00;14.98;;;12.20;99.90;;;;;;5014510;28;20048;-87
2022/05/21 04:26:58;;;;;;;40.05;13.82;;;12.20;99.90;;;;;;5014060;28;20041;-86
2022/05/21 04:29:25;;;;;;;32.25;9.95;;;12.20;99.90;;;;;;5045541;28;20153;-87
2022/05/21 04:31:51;;;;;;;24.15;8.85;;;12.20;99.90;;;;;;5030153;28;20060;-88
2022/05/21 04:34:17;;;;;;;24.45;9.48;;;12.20;99.90;;;;;;5045563;28;20805;-87
2022/05/21 04:36:43;;;;;;;33.00;10.18;;;12.20;99.90;;;;;;5007008;28;20057;-88
2022/05/21 04:39:09;;;;;;;33.10;10.20;;;12.20;99.90;;;;;;5021625;28;20087;-86
2022/05/21 04:41:34;;;;;;;35.03;9.98;;;12.20;99.90;;;;;;4996531;28;20056;-86
2022/05/21 04:44:02;;;;;;;26.67;9.27;;;12.30;99.90;;;;;;5021065;28;20049;-84
2022/05/21 04:46:29;;;;;;;24.50;8.27;;;12.30;99.90;;;;;;5058980;28;20045;-86
2022/05/21 04:48:57;;;;;;;37.47;9.93;;;12.30;99.90;;;;;;5012374;28;20045;-87
2022/05/21 04:51:22;;;;;;;33.80;8.30;;;12.30;99.90;;;;;;5033034;28;20080;-86
2022/05/21 04:53:48;;;;;;;23.75;7.28;;;12.30;99.90;;;;;;5046613;28;20491;-86
2022/05/21 04:56:14;;;;;;;33.65;8.57;;;12.30;99.90;;;;;;5011557;28;20064;-87
2022/05/21 04:58:40;;;;;;;25.38;7.68;;;12.40;99.90;;;;;;5008335;28;21624;-86
2022/05/21 05:01:06;;;;;;;31.00;8.00;;;12.40;99.90;;;;;;5002814;28;20789;-86
2022/05/21 05:03:32;;;;;;;23.48;8.05;;;12.40;99.90;;;;;;5027681;28;20052;-86
2022/05/21 05:05:59;;;;;;;27.42;8.25;;;12.40;99.90;;;;;;5032527;28;20036;-88
2022/05/21 05:08:25;;;;;;;26.15;6.22;;;12.30;99.90;;;;;;5013286;28;20043;-87
2022/05/21 05:10:51;;;;;;;16.55;6.45;;;12.30;99.90;;;;;;5012732;28;20095;-86
2022/05/21 05:13:17;;;;;;;20.60;7.13;;;12.40;99.90;;;;;;5029044;28;20056;-87
2022/05/21 05:15:46;;;;;;;27.42;8.00;;;12.40;99.90;;;;;;5029701;28;20086;-86
2022/05/21 05:18:18;;;;;;;24.38;7.50;;;12.50;99.90;;;;;;5012054;28;20047;-86
2022/05/21 05:20:45;;;;;;;38.40;7.93;;;12.60;99.90;;;;;;5029058;28;20050;-87
2022/05/21 05:23:11;;;;;;;28.15;7.30;;;12.70;99.90;;;;;;5013494;28;20053;-86
2022/05/21 05:25:37;;;;;;;26.67;6.47;;;12.80;99.90;;;;;;5046532;28;20100;-85
2022/05/21 05:28:03;;;;;;;25.58;6.32;;;12.70;99.90;;;;;;5005325;28;20038;-87
2022/05/21 05:30:29;;;;;;;18.50;5.80;;;12.80;99.90;;;;;;5027294;28;20487;-86
2022/05/21 05:32:55;;;;;;;20.45;6.32;;;12.80;99.90;;;;;;5028617;28;20505;-87
2022/05/21 05:35:21;;;;;;;20.63;5.75;;;12.80;99.90;;;;;;5011143;28;20049;-87
2022/05/21 05:37:46;;;;;;;20.40;7.07;;;12.80;99.90;;;;;;5031573;28;20045;-86
2022/05/21 05:40:20;;;;;;;23.33;5.43;;;12.80;99.90;;;;;;5012957;28;20474;-88
2022/05/21 05:42:48;;;;;;;19.63;6.32;;;12.80;99.90;;;;;;5009716;28;20045;-87
2022/05/21 05:45:14;;;;;;;17.75;5.38;;;12.80;99.90;;;;;;5010637;28;20045;-87
2022/05/21 05:47:40;;;;;;;28.38;6.55;;;12.90;99.90;;;;;;5041515;28;20049;-86
2022/05/21 05:50:06;;;;;;;25.55;6.00;;;12.90;99.90;;;;;;5028264;28;20053;-87
2022/05/21 05:52:32;;;;;;;19.63;4.80;;;13.00;99.90;;;;;;5019490;28;20054;-87
2022/05/21 05:54:58;;;;;;;19.48;5.32;;;13.10;99.90;;;;;;4984858;28;20121;-87
2022/05/21 05:57:23;;;;;;;21.13;4.50;;;13.10;99.90;;;;;;5044541;28;20045;-88
2022/05/21 05:59:50;;;;;;;16.98;4.53;;;13.10;99.90;;;;;;5010845;28;20120;-87
2022/05/21 06:05:09;;;;;;;17.38;4.72;;;13.10;99.90;;;;;;5022384;28;20107;-86
2022/05/21 06:07:48;;;;;;;17.90;4.60;;;13.10;99.90;;;;;;5007494;28;20050;-88
2022/05/21 06:10:16;;;;;;;16.50;4.43;;;13.10;99.90;;;;;;5020670;28;20176;-90
2022/05/21 06:12:42;;;;;;;11.55;3.17;;;13.00;99.90;;;;;;5004099;28;20132;-92
2022/05/21 06:15:09;;;;;;;18.30;4.10;;;13.10;99.90;;;;;;5032738;28;20119;-89
2022/05/21 06:17:35;;;;;;;12.73;3.70;;;13.10;99.90;;;;;;5011851;28;20049;-92
2022/05/21 06:20:01;;;;;;;19.25;3.92;;;13.00;99.90;;;;;;5031240;28;20080;-92
2022/05/21 06:22:27;;;;;;;15.40;3.55;;;13.10;99.90;;;;;;4993067;28;20053;-91
2022/05/21 06:24:52;;;;;;;23.33;4.65;;;13.30;99.90;;;;;;4997289;28;20501;-92
2022/05/21 06:27:18;;;;;;;12.93;3.63;;;13.40;99.90;;;;;;5030114;28;20406;-93
2022/05/21 06:29:45;;;;;;;14.52;3.08;;;13.30;99.90;;;;;;5048500;28;20534;-93
2022/05/21 06:32:11;;;;;;;13.52;3.10;;;13.30;99.90;;;;;;5030606;28;20045;-93
2022/05/21 06:34:37;;;;;;;14.32;3.70;;;13.20;99.90;;;;;;4994195;28;20057;-90
2022/05/21 06:37:09;;;;;;;11.60;3.70;;;13.10;99.90;;;;;;5013443;28;20048;-94
2022/05/21 06:39:36;;;;;;;13.50;3.63;;;13.20;99.90;;;;;;5029171;28;20661;-94
2022/05/21 06:42:02;;;;;;;12.57;3.28;;;13.30;99.90;;;;;;5027061;28;20053;-93
2022/05/21 06:44:28;;;;;;;12.95;3.65;;;13.50;99.90;;;;;;5007841;28;20049;-92
2022/05/21 06:46:55;;;;;;;14.65;3.53;;;13.60;99.90;;;;;;5031466;28;20045;-91
2022/05/21 06:49:21;;;;;;;13.30;4.20;;;13.60;99.90;;;;;;5012672;28;20094;-89
2022/05/21 06:51:47;;;;;;;11.07;3.08;;;13.80;99.90;;;;;;4998480;28;20479;-90
2022/05/21 06:54:13;;;;;;;14.68;3.03;;;13.90;99.90;;;;;;5040508;28;20131;-88
2022/05/21 06:56:42;;;;;;;10.98;3.03;;;13.90;99.90;;;;;;5039824;28;20080;-93
2022/05/21 06:59:07;;;;;;;11.60;3.10;;;13.70;99.90;;;;;;4993783;28;20045;-91
2022/05/21 07:01:33;;;;;;;10.27;3.45;;;13.60;99.90;;;;;;5010877;28;20052;-91
2022/05/21 07:03:59;;;;;;;11.27;2.75;;;13.70;99.90;;;;;;5010905;28;20048;-92
2022/05/21 07:09:09;;;;;;;10.65;2.55;;;13.70;99.90;;;;;;5015251;28;20056;-92
2022/05/21 07:11:35;;;;;;;13.25;3.00;;;13.80;99.90;;;;;;4981568;28;20053;-93
2022/05/21 07:14:01;;;;;;;12.18;2.58;;;14.10;99.90;;;;;;5013023;28;20053;-92
2022/05/21 07:16:27;;;;;;;13.02;3.28;;;14.40;99.90;;;;;;5010786;28;20048;-92
2022/05/21 07:18:53;;;;;;;11.27;2.30;;;14.60;99.90;;;;;;5008137;28;20088;-92
2022/05/21 07:21:19;;;;;;;10.32;2.70;;;14.70;99.90;;;;;;5015016;28;20502;-89
2022/05/21 07:23:45;;;;;;;14.27;2.50;;;14.70;99.90;;;;;;5014162;28;20042;-92
2022/05/21 07:26:12;;;;;;;9.88;2.42;;;14.90;99.90;;;;;;5014573;28;20084;-90
2022/05/21 07:28:38;;;;;;;10.57;2.25;;;14.80;99.90;;;;;;5047213;28;20467;-90
2022/05/21 07:31:04;;;;;;;10.68;2.78;;;14.70;99.90;;;;;;4993651;28;20048;-91
2022/05/21 07:33:30;;;;;;;8.23;2.22;;;14.50;99.90;;;;;;4998769;28;20659;-88
2022/05/21 07:35:56;;;;;;;11.82;2.47;;;14.60;99.90;;;;;;5016497;28;20049;-88
2022/05/21 07:38:22;;;;;;;8.32;1.88;;;14.80;99.90;;;;;;5016180;28;20045;-86
2022/05/21 07:40:48;;;;;;;10.40;2.17;;;14.90;99.90;;;;;;5015645;28;20045;-88
2022/05/21 07:43:27;;;;;;;13.00;2.10;;;14.80;99.90;;;;;;5017046;28;20132;-89
2022/05/21 07:45:54;;;;;;;12.02;3.35;;;14.90;99.90;;;;;;5017019;28;20046;-88
2022/05/21 07:48:20;;;;;;;11.10;2.60;;;15.10;99.90;;;;;;5016831;28;20044;-89
2022/05/21 07:50:50;;;;;;;6.68;1.80;;;15.50;99.90;;;;;;5000371;28;20084;-87
2022/05/21 07:53:28;;;;;;;14.30;2.28;;;15.60;99.90;;;;;;5032755;28;20053;-87
2022/05/21 07:55:55;;;;;;;11.75;2.28;;;15.40;99.90;;;;;;5016626;28;20100;-88
2022/05/21 07:58:23;;;;;;;8.45;2.15;;;15.20;99.90;;;;;;5020970;28;20124;-89
2022/05/21 08:00:50;;;;;;;14.60;2.92;;;15.20;99.90;;;;;;5058771;28;20053;-88
2022/05/21 08:03:16;;;;;;;7.07;1.83;;;15.50;99.90;;;;;;5066552;28;20084;-88
2022/05/21 08:05:42;;;;;;;14.52;2.47;;;16.00;99.90;;;;;;5033346;28;20081;-87
2022/05/21 08:08:09;;;;;;;9.20;1.90;;;16.20;99.90;;;;;;4999458;28;20399;-89
2022/05/21 08:10:36;;;;;;;10.55;2.33;;;16.30;99.90;;;;;;5031453;28;20048;-89
2022/05/21 08:13:02;;;;;;;8.32;2.45;;;16.40;99.90;;;;;;5016043;28;20057;-88
2022/05/21 08:15:29;;;;;;;14.68;3.50;;;16.20;99.90;;;;;;4998055;28;20044;-86
2022/05/21 08:17:55;;;;;;;10.77;3.35;;;15.90;99.90;;;;;;5008926;28;20045;-88
2022/05/21 08:20:21;;;;;;;11.48;3.38;;;15.60;99.90;;;;;;5010589;28;20046;-86
2022/05/21 08:28:16;;;;;;;8.98;2.92;;;17.20;99.90;;;;;;5034569;28;20052;-86
2022/05/21 08:30:44;;;;;;;8.90;2.03;;;16.90;99.90;;;;;;5031403;28;20045;-87
2022/05/21 08:33:10;;;;;;;12.20;2.88;;;16.50;99.90;;;;;;5047275;28;20064;-87
2022/05/21 08:35:41;;;;;;;10.50;2.70;;;16.70;99.90;;;;;;5015168;28;20045;-86
2022/05/21 08:38:07;;;;;;;9.57;2.42;;;17.40;99.90;;;;;;5011871;28;20108;-87
2022/05/21 08:40:49;;;;;;;9.80;2.13;;;18.00;99.90;;;;;;5011096;28;20137;-87
2022/05/21 08:43:42;;;;;;;8.15;1.80;;;18.20;99.90;;;;;;5009193;28;20053;-86
2022/05/21 08:46:22;;;;;;;10.60;2.10;;;18.10;99.90;;;;;;5045894;28;20064;-88
2022/05/21 08:49:14;;;;;;;10.65;2.25;;;17.50;99.90;;;;;;5031649;28;20127;-87
2022/05/21 08:51:50;;;;;;;13.32;3.20;;;16.90;99.90;;;;;;5027146;28;20059;-87
2022/05/21 08:54:23;;;;;;;12.70;2.42;;;16.50;99.90;;;;;;5036034;28;20053;-86
2022/05/21 08:56:50;;;;;;;9.07;1.75;;;16.40;99.90;;;;;;5014154;28;20037;-88
2022/05/21 08:59:20;;;;;;;12.98;2.28;;;16.60;99.90;;;;;;4999409;28;20049;-88
2022/05/21 09:01:47;;;;;;;8.98;2.10;;;17.40;99.90;;;;;;5022393;28;20491;-87
2022/05/21 09:04:14;;;;;;;9.15;2.00;;;18.20;99.90;;;;;;4996982;28;20096;-89
2022/05/21 09:07:11;;;;;;;5.40;1.50;;;18.80;99.90;;;;;;5025371;28;20064;-88
2022/05/21 09:10:05;;;;;;;7.80;1.98;;;18.70;99.90;;;;;;5011078;28;20045;-88
2022/05/21 09:12:41;;;;;;;11.05;2.22;;;18.00;99.90;;;;;;5011025;28;20494;-87
2022/05/21 09:15:08;;;;;;;7.43;1.65;;;18.00;99.90;;;;;;5024818;28;20518;-87
2022/05/21 09:17:42;;;;;;;8.60;2.50;;;18.90;99.90;;;;;;5003776;28;20053;-88
2022/05/21 09:20:18;;;;;;;8.35;2.00;;;18.70;99.90;;;;;;5010474;28;20575;-89
2022/05/21 09:22:54;;;;;;;9.55;1.90;;;18.30;99.90;;;;;;5027379;28;20081;-88
2022/05/21 09:25:25;;;;;;;7.43;1.52;;;18.80;99.90;;;;;;5026152;28;20517;-87
2022/05/21 09:28:07;;;;;;;6.68;1.90;;;19.10;99.90;;;;;;5052923;28;20137;-87
2022/05/21 09:30:40;;;;;;;6.85;1.60;;;20.00;99.90;;;;;;5022966;28;20044;-87
2022/05/21 09:33:32;;;;;;;7.78;1.90;;;21.00;99.90;;;;;;5021091;28;20056;-89
2022/05/21 09:35:59;;;;;;;6.00;1.70;;;21.20;99.90;;;;;;5054604;28;20060;-86
2022/05/21 09:38:26;;;;;;;8.02;2.00;;;21.20;94.90;;;;;;5005279;28;20049;-87
2022/05/21 09:41:16;;;;;;;7.03;1.70;;;21.00;92.70;;;;;;5005695;28;20088;-89
2022/05/21 09:46:41;;;;;;;8.05;2.00;;;18.90;99.90;;;;;;5027330;28;20089;-85
2022/05/21 09:49:28;;;;;;;11.13;1.98;;;18.70;99.90;;;;;;5030961;28;20045;-85
2022/05/21 09:52:01;;;;;;;10.60;1.88;;;19.40;99.90;;;;;;5030503;28;20380;-85
2022/05/21 09:54:40;;;;;;;12.27;2.55;;;20.10;95.90;;;;;;5037204;28;20063;-86
2022/05/21 09:57:19;;;;;;;7.05;1.75;;;20.20;99.40;;;;;;5011762;28;20041;-83
2022/05/21 10:00:17;;;;;;;4.78;1.40;;;20.00;95.00;;;;;;5022127;28;20060;-85
2022/05/21 10:02:53;;;;;;;5.38;1.45;;;20.40;99.90;;;;;;5021512;28;20055;-82
2022/05/21 10:05:29;;;;;;;8.90;2.17;;;21.20;87.90;;;;;;5012338;28;20056;-82
2022/05/21 10:11:05;;;;;;;6.03;1.30;;;21.90;85.40;;;;;;5023716;28;20060;-81
2022/05/21 10:13:40;;;;;;;4.90;1.17;;;22.60;83.30;;;;;;5028686;28;20581;-82
2022/05/21 10:16:39;;;;;;;5.97;1.40;;;22.90;73.10;;;;;;5018598;28;20045;-81
2022/05/21 10:19:15;;;;;;;9.02;1.65;;;23.00;83.50;;;;;;5024747;28;20060;-81
2022/05/21 10:21:56;;;;;;;6.53;1.98;;;22.90;69.30;;;;;;5023533;28;20060;-82
2022/05/21 10:24:42;;;;;;;7.05;1.33;;;21.80;65.90;;;;;;5023479;28;20049;-84
2022/05/21 10:27:12;;;;;;;7.63;1.60;;;20.60;89.00;;;;;;5018804;28;20124;-84
2022/05/21 10:29:59;;;;;;;6.80;1.85;;;20.00;81.40;;;;;;5001893;28;20044;-84
2022/05/21 10:32:44;;;;;;;5.13;1.08;;;19.30;91.10;;;;;;5042404;28;20056;-84
2022/05/21 10:35:31;;;;;;;6.22;1.83;;;19.30;90.40;;;;;;5013137;28;20426;-86
2022/05/21 10:38:03;;;;;;;7.18;1.52;;;21.10;99.90;;;;;;5011280;28;20089;-82
2022/05/21 10:40:40;;;;;;;5.88;1.42;;;21.90;85.90;;;;;;5011492;28;20514;-82
2022/05/21 10:43:18;;;;;;;6.10;1.38;;;22.20;82.70;;;;;;5012225;28;20041;-83
2022/05/21 10:45:54;;;;;;;5.15;1.30;;;23.10;69.80;;;;;;5012653;28;20488;-86
2022/05/21 10:48:26;;;;;;;5.28;1.17;;;23.10;64.50;;;;;;5044161;28;20112;-83
2022/05/21 10:51:00;;;;;;;5.53;1.40;;;22.30;65.90;;;;;;5009588;28;20044;-82
2022/05/21 10:53:28;;;;;;;6.68;1.38;;;21.70;71.30;;;;;;5025416;28;20053;-81
2022/05/21 10:55:54;;;;;;;4.53;1.65;;;21.10;71.80;;;;;;5027549;28;20111;-81
2022/05/21 10:58:29;;;;;;;7.43;1.70;;;21.20;74.50;;;;;;5031997;28;20084;-81
2022/05/21 11:01:15;;;;;;;7.05;1.65;;;21.40;74.30;;;;;;5010318;28;20053;-81
2022/05/21 11:03:48;;;;;;;;;;;21.20;74.60;;;;;;5033790;28;20064;-83
2022/05/21 11:06:36;;;;;;;5.63;1.30;;;20.80;87.80;;;;;;5004991;28;20000;-81
2022/05/21 11:09:14;;;;;;;6.10;1.48;;;21.10;86.20;;;;;;5030377;28;20034;-81
2022/05/21 11:11:59;;;;;;;10.85;1.67;;;21.40;76.80;;;;;;5016658;28;20048;-82
2022/05/21 11:14:41;;;;;;;7.70;1.60;;;20.90;84.70;;;;;;5032831;28;20084;-82
2022/05/21 11:17:35;;;;;;;7.57;1.63;;;20.20;89.20;;;;;;5029665;28;20307;-82
2022/05/21 11:20:17;;;;;;;7.15;1.67;;;19.60;78.30;;;;;;5012163;28;20057;-83
2022/05/21 11:22:57;;;;;;;9.48;2.47;;;18.90;78.10;;;;;;5035701;28;20045;-82
2022/05/21 11:25:33;;;;;;;6.70;2.03;;;18.80;78.80;;;;;;5030591;28;20049;-82
2022/05/21 11:28:40;;;;;;;7.10;1.80;;;18.90;84.10;;;;;;5015228;28;20044;-81
2022/05/21 11:31:18;;;;;;;9.40;1.92;;;19.70;82.30;;;;;;5039244;28;20049;-82
2022/05/21 11:39:20;;;;;;;9.00;1.52;;;20.40;74.70;;;;;;5014728;28;20056;-83
2022/05/21 11:42:00;;;;;;;9.93;2.38;;;22.10;66.20;;;;;;5062793;28;20645;-83
2022/05/21 11:44:58;;;;;;;5.90;1.60;;;21.90;61.50;;;;;;5031997;28;20053;-83
2022/05/21 11:47:27;;;;;;;7.65;1.80;;;21.20;63.20;;;;;;5014155;28;20103;-82
2022/05/21 11:49:55;;;;;;;5.63;1.55;;;20.70;65.40;;;;;;5044931;28;20816;-82
2022/05/21 11:52:27;;;;;;;7.78;1.65;;;20.10;66.50;;;;;;5057883;28;20049;-81
2022/05/21 11:55:11;;;;;;;9.60;1.92;;;19.40;68.30;;;;;;5017495;28;20054;-83
2022/05/21 11:57:38;;;;;;;6.22;2.10;;;18.90;73.80;;;;;;5031341;28;20080;-82
2022/05/21 12:00:07;;;;;;;11.77;2.13;;;19.30;76.10;;;;;;5043426;28;20115;-82
2022/05/21 12:02:38;;;;;;;7.20;1.60;;;19.10;76.20;;;;;;5026496;28;20068;-81
2022/05/21 12:05:09;;;;;;;11.18;2.88;;;18.90;76.50;;;;;;5024719;28;20038;-81
2022/05/21 12:07:42;;;;;;;8.73;1.98;;;20.10;72.50;;;;;;5025549;28;20077;-82
2022/05/21 12:10:30;;;;;;;6.72;1.63;;;21.30;67.90;;;;;;5029705;28;20053;-83
2022/05/21 12:13:09;;;;;;;7.03;1.98;;;22.70;61.00;;;;;;5016027;28;20497;-82
2022/05/21 12:16:05;;;;;;;7.28;1.95;;;22.70;58.70;;;;;;5016860;28;20054;-82
2022/05/21 12:18:40;;;;;;;7.70;1.85;;;21.90;60.00;;;;;;5012565;28;20064;-81
2022/05/21 12:21:27;;;;;;;7.40;1.33;;;21.00;61.30;;;;;;5032041;28;20048;-85
2022/05/21 12:23:58;;;;;;;6.35;1.45;;;21.10;63.10;;;;;;5010480;28;20053;-82
2022/05/21 12:26:30;;;;;;;7.30;1.38;;;20.80;63.20;;;;;;5012447;28;20073;-81
2022/05/21 12:28:55;;;;;;;5.50;1.55;;;21.30;62.80;;;;;;5012370;28;20655;-85
2022/05/21 12:31:26;;;;;;;7.18;1.33;;;22.50;60.70;;;;;;5032042;28;20076;-82
2022/05/21 12:33:58;;;;;;;7.60;1.52;;;23.50;58.50;;;;;;5031233;28;20124;-82
2022/05/21 12:36:29;;;;;;;5.65;1.00;;;23.30;52.10;;;;;;5027472;28;20054;-81
2022/05/21 12:38:56;;;;;;;5.53;1.35;;;22.10;52.60;;;;;;4996865;28;20085;-84
2022/05/21 12:41:25;;;;;;;5.60;1.25;;;21.70;56.60;;;;;;5029418;28;20041;-82
2022/05/21 12:43:53;;;;;;;5.50;1.20;;;20.90;57.10;;;;;;5030837;28;20483;-83
2022/05/21 12:46:28;;;;;;;6.05;1.52;;;21.60;58.80;;;;;;5026055;28;20580;-84
2022/05/21 12:48:57;;;;;;;8.60;2.00;;;22.60;55.40;;;;;;5015211;28;20045;-83
2022/05/21 12:51:36;;;;;;;5.47;1.52;;;22.90;54.90;;;;;;5029790;28;20922;-83
2022/05/21 12:54:05;;;;;;;5.15;1.40;;;24.30;51.40;;;;;;5027516;28;20056;-84
2022/05/21 12:56:36;;;;;;;7.50;1.23;;;25.50;50.70;;;;;;5011300;28;20049;-83
2022/05/21 12:59:03;;;;;;;6.60;1.60;;;26.10;47.80;;;;;;5008238;28;20068;-83
2022/05/21 13:01:31;;;;;;;6.30;1.50;;;26.40;47.50;;;;;;5025660;28;20046;-83
2022/05/21 13:04:01;;;;;;;4.20;1.33;;;26.70;46.50;;;;;;5027813;28;20045;-83
2022/05/21 13:06:31;;;;;;;8.80;1.58;;;27.70;47.40;;;;;;5011103;28;20057;-83
2022/05/21 13:09:00;;;;;;;7.45;1.40;;;27.80;43.50;;;;;;5027233;28;20121;-84
2022/05/21 13:11:40;;;;;;;4.22;1.17;;;27.10;42.10;;;;;;5029834;28;20041;-83
2022/05/21 13:14:10;;;;;;;5.80;1.15;;;26.80;40.70;;;;;;5013007;28;20052;-83
2022/05/21 13:16:49;;;;;;;4.45;1.20;;;26.60;42.40;;;;;;5030520;28;20050;-85
2022/05/21 13:19:28;;;;;;;8.65;1.45;;;26.70;41.50;;;;;;5027011;28;20076;-83